Impacts METAR Board
IDs:

KPIT - Pittsburgh Intl, PA, US

Updated at: 2200 UTC 25 May 2018
Potential Impact None Slight Moderate High
Time 25/10Z 25/11Z 25/12Z 25/13Z 25/14Z 25/15Z 25/16Z 25/17Z 25/18Z 25/19Z 25/20Z 25/21Z 25/22Z
Temp56 57 61 68 73 77 79 81 83 85 85 84 84
Dewpt52 53 55 57 60 62 62 60 61 55 56 58 55
Altim30.06 30.06 30.05 30.05 30.04 30.03 30.02 29.99 29.98 29.96 29.94 29.92 29.90
VIS10 10 10 10 10 10 10 10 10 10 10 10 10
CIG250 -- 250 -- -- -- -- -- -- -- -- -- --
CoverBKNSCTBKNCLRSCTSCTSCTSCTSCTSCTFEWFEWFEW
FltCatVFRVFRVFRVFRVFRVFRVFRVFRVFRVFRVFRVFRVFR
WX--------------------------
WDir0013000230340280280250260260260
WSpd0 0 3 0 0 8 3 5 5 9 7 8 11
WGst-- -- -- -- -- -- -- -- -- 16 -- -- --
Raw hourly METARs
KPIT 250951Z 00000KT 10SM FEW055 BKN250 13/11 A3006 RMK AO2 SLP179 T01330111
KPIT 251051Z 00000KT 10SM FEW055 SCT250 14/12 A3006 RMK AO2 SLP180 T01390117
KPIT 251151Z 13003KT 10SM FEW060 BKN250 16/13 A3005 RMK AO2 SLP178 T01610128 10167 20128 57004
KPIT 251251Z 00000KT 10SM CLR 20/14 A3005 RMK AO2 SLP176 T02000139
KPIT 251351Z 00000KT 10SM SCT250 23/16 A3004 RMK AO2 SLP173 T02280156
KPIT 251451Z 23008KT 180V250 10SM SCT250 25/17 A3003 RMK AO2 SLP168 T02500167 58007
KPIT 251551Z 34003KT 10SM FEW030 SCT250 26/17 A3002 RMK AO2 SLP164 T02610167
KPIT 251651Z 28005KT 10SM FEW040 SCT250 27/16 A2999 RMK AO2 SLP156 T02720156
KPIT 251751Z 28005KT 10SM SCT050 SCT250 28/16 A2998 RMK AO2 SLP149 T02830161 10283 20167 57019
KPIT 251851Z 25009G16KT 10SM SCT055 SCT250 29/13 A2996 RMK AO2 SLP144 T02940128
KPIT 251951Z 26007KT 210V300 10SM FEW060 FEW250 29/13 A2994 RMK AO2 SLP138 T02940133
KPIT 252051Z 26008KT 10SM FEW060 FEW250 29/14 A2992 RMK AO2 SLP131 T02890144 58019
KPIT 252151Z 26011KT 10SM FEW060 FEW250 29/13 A2990 RMK AO2 SLP124 T02890128



Page loaded:  22:14 UTC  |   03:14 PM Pacific  |   04:14 PM Mountain  |   05:14 PM Central  |   06:14 PM Eastern

 

ADVISORIES

FORECASTS

FORECASTS

OBSERVATIONS

USER TOOLS

ABOUT US